Main page
METAR-TAF:

METAR-TAF

Airports :

Al Najaf International Airport

Najaf, Iraq

latitude: 31-59-23N, longitude: 44-24-15E, elevation: 31 m

Current weather observation

The report was made 1 hour and 2 minutes ago, at 21:00 UTC
Wind 4 kt from the Southeast
Temperature 25°C
Humidity 44%
Pressure 1008 hPa
Visibility: 8000 m

METAR: ORNI 212100Z 13004KT 8000 NSC 25/12 Q1008 NOSIG

Time: 01:02 (22:02 UTC)

Forecast

The report was made 5 hours and 2 minutes ago, at 17:00 UTC
Forecast valid from 21 at 18 UTC to 22 at 18 UTC
Wind 8 kt from the Southeast
Visibility: 7000 m
Scattered clouds at a height of 4000 ft

TAF: ORNI 211700Z 2118/2218 13008KT 7000 SCT040

Weather observations and forecasts of more than 4000 airports (METAR and TAF reports).

The available stations are represented by yellow and red dots on the map.

Hover mouse over dot to see the name of the station.

Then click to see weather observations and forecasts.

To change the map : click on the green buttons with a black cross to zoom in, on the green button with a dash to zoom out, or on the green arrows for adjacent maps.


METAR-TAF: